Time;durP1;ratioP1;P1;durP2;ratioP2;P2;SDS_P1;SDS_P2;PMS_P1;PMS_P2;Temp;Humidity;BMP_temperature;BMP_pressure;BME280_temperature;BME280_humidity;BME280_pressure;Samples;Min_cycle;Max_cycle;Signal;HPM_P1;HPM_P2
2022/08/09 00:02:23;;;;;;;5.07;4.60;;;29.70;1.00;;;;;;5114815;28;20039;-45
2022/08/09 00:04:49;;;;;;;5.78;4.47;;;29.70;1.00;;;;;;5114173;28;20039;-45
2022/08/09 00:07:15;;;;;;;4.97;4.57;;;29.70;1.00;;;;;;5114958;28;20020;-44
2022/08/09 00:09:41;;;;;;;7.05;4.80;;;29.70;1.00;;;;;;5095577;28;20023;-46
2022/08/09 00:12:08;;;;;;;5.60;5.10;;;29.70;1.00;;;;;;5114042;28;20040;-47
2022/08/09 00:14:34;;;;;;;5.05;4.68;;;29.60;1.00;;;;;;5095672;28;20413;-45
2022/08/09 00:17:00;;;;;;;5.38;4.88;;;29.60;1.00;;;;;;5096231;28;20138;-44
2022/08/09 00:19:25;;;;;;;4.70;4.15;;;29.60;1.00;;;;;;5113511;28;20039;-44
2022/08/09 00:21:51;;;;;;;5.80;5.20;;;29.60;1.00;;;;;;5114513;28;20038;-44
2022/08/09 00:24:17;;;;;;;7.80;4.68;;;29.60;1.00;;;;;;5114016;28;20116;-44
2022/08/09 00:26:42;;;;;;;6.75;5.05;;;29.60;1.00;;;;;;5114678;28;20107;-44
2022/08/09 00:29:08;;;;;;;5.32;4.82;;;29.60;1.00;;;;;;5113769;28;20104;-46
2022/08/09 00:31:34;;;;;;;6.10;4.80;;;29.60;1.00;;;;;;5114326;28;20069;-45
2022/08/09 00:33:59;;;;;;;5.63;5.05;;;29.50;1.00;;;;;;5113339;28;20038;-44
2022/08/09 00:36:25;;;;;;;5.15;4.65;;;29.60;1.00;;;;;;5114278;28;20026;-46
2022/08/09 00:38:51;;;;;;;7.60;5.20;;;29.50;1.00;;;;;;5113382;28;20024;-44
2022/08/09 00:41:19;;;;;;;7.68;4.60;;;29.50;1.00;;;;;;5113089;28;20126;-44
2022/08/09 00:43:45;;;;;;;7.93;4.95;;;29.50;1.00;;;;;;5113239;28;20557;-45
2022/08/09 00:46:11;;;;;;;6.43;4.65;;;29.50;1.00;;;;;;5112809;28;20051;-45
2022/08/09 00:48:36;;;;;;;5.60;4.85;;;29.40;1.00;;;;;;5113512;28;20054;-45
2022/08/09 00:51:05;;;;;;;5.93;5.32;;;29.50;1.00;;;;;;5113984;28;20062;-45
2022/08/09 00:53:31;;;;;;;6.90;5.47;;;29.40;1.00;;;;;;5109704;28;20063;-47
2022/08/09 00:55:57;;;;;;;8.32;5.90;;;29.40;1.00;;;;;;5093465;28;20028;-45
2022/08/09 00:58:23;;;;;;;7.82;4.50;;;29.40;1.00;;;;;;5096494;28;20024;-47
2022/08/09 01:00:53;;;;;;;6.97;5.32;;;29.40;1.00;;;;;;5093056;28;20180;-45
2022/08/09 01:03:33;;;;;;;5.78;5.22;;;29.40;1.00;;;;;;5106746;28;20027;-45
2022/08/09 01:06:08;;;;;;;5.75;5.18;;;29.40;1.00;;;;;;5111885;28;20020;-45
2022/08/09 01:08:45;;;;;;;5.20;4.55;;;29.40;1.00;;;;;;5111768;28;20027;-46
2022/08/09 01:11:22;;;;;;;5.80;5.30;;;29.40;1.00;;;;;;5085708;28;20125;-45
2022/08/09 01:14:14;;;;;;;6.63;4.55;;;29.40;1.00;;;;;;5111417;28;20473;-46
2022/08/09 01:16:43;;;;;;;7.07;4.65;;;29.50;1.00;;;;;;5101687;28;20397;-45
2022/08/09 01:19:20;;;;;;;7.85;5.03;;;29.50;1.00;;;;;;5108507;28;20024;-50
2022/08/09 01:22:02;;;;;;;6.15;5.55;;;29.40;1.00;;;;;;5112676;28;20031;-51
2022/08/09 01:24:27;;;;;;;7.20;5.10;;;29.30;1.00;;;;;;5111604;28;20483;-50
2022/08/09 01:27:06;;;;;;;7.00;5.43;;;29.30;1.00;;;;;;5112667;28;20040;-47
2022/08/09 01:29:41;;;;;;;6.35;5.00;;;29.20;1.00;;;;;;5111822;28;20019;-46
2022/08/09 01:32:10;;;;;;;6.43;5.70;;;29.10;1.00;;;;;;5112660;28;20023;-46
2022/08/09 01:34:37;;;;;;;7.25;5.70;;;28.90;1.00;;;;;;5111567;28;20028;-45
2022/08/09 01:37:06;;;;;;;8.65;5.85;;;28.90;1.00;;;;;;5111903;28;20065;-51
2022/08/09 01:39:34;;;;;;;8.80;5.47;;;29.00;1.00;;;;;;5111592;28;20110;-51
2022/08/09 01:42:04;;;;;;;5.82;5.15;;;29.00;1.00;;;;;;5112765;28;20160;-48
2022/08/09 01:44:32;;;;;;;6.50;5.60;;;28.90;1.00;;;;;;5112170;28;20106;-47
2022/08/09 01:47:00;;;;;;;6.45;4.95;;;28.90;1.00;;;;;;5112955;28;20049;-45
2022/08/09 01:49:29;;;;;;;5.35;4.95;;;28.90;1.00;;;;;;5112002;28;20104;-46
2022/08/09 01:51:57;;;;;;;6.82;5.72;;;28.90;1.00;;;;;;5112838;28;20463;-49
2022/08/09 01:54:38;;;;;;;6.57;5.97;;;28.90;1.00;;;;;;5112044;28;20080;-49
2022/08/09 01:57:11;;;;;;;6.47;5.90;;;28.60;1.00;;;;;;5098524;28;20169;-46
2022/08/09 01:59:40;;;;;;;7.15;6.53;;;28.60;1.00;;;;;;5105194;28;20024;-46
2022/08/09 02:02:08;;;;;;;6.97;6.20;;;28.70;1.00;;;;;;5107279;28;20489;-46
2022/08/09 02:04:36;;;;;;;7.50;6.90;;;28.70;1.00;;;;;;5103504;28;20027;-49
2022/08/09 02:07:14;;;;;;;6.95;6.25;;;28.80;1.00;;;;;;5112098;28;20031;-48
2022/08/09 02:09:49;;;;;;;7.20;6.57;;;28.70;1.00;;;;;;5111854;28;20018;-45
2022/08/09 02:12:17;;;;;;;6.85;6.13;;;28.60;1.00;;;;;;5112479;28;20098;-45
2022/08/09 02:14:46;;;;;;;6.88;5.82;;;28.60;1.00;;;;;;5111602;28;20016;-46
2022/08/09 02:17:13;;;;;;;6.70;6.10;;;28.80;1.00;;;;;;5098037;28;20023;-45
2022/08/09 02:19:39;;;;;;;6.38;5.68;;;28.60;1.00;;;;;;5111440;28;20473;-46
2022/08/09 02:22:16;;;;;;;6.95;5.82;;;28.80;1.00;;;;;;5112272;28;20494;-45
2022/08/09 02:24:46;;;;;;;6.82;5.90;;;28.60;1.00;;;;;;5110883;28;20020;-45
2022/08/09 02:27:14;;;;;;;6.63;6.03;;;28.60;1.00;;;;;;5112398;28;20051;-44
2022/08/09 02:29:44;;;;;;;7.95;6.50;;;28.60;1.00;;;;;;5111172;28;20077;-46
2022/08/09 02:32:13;;;;;;;6.30;5.78;;;28.50;1.00;;;;;;5112587;28;20064;-45
2022/08/09 02:34:41;;;;;;;7.05;5.63;;;28.30;1.00;;;;;;5111388;28;20052;-47
2022/08/09 02:37:15;;;;;;;6.45;5.95;;;28.40;1.00;;;;;;5110781;28;20031;-47
2022/08/09 02:39:47;;;;;;;6.28;5.68;;;28.40;1.00;;;;;;5111567;28;20034;-45
2022/08/09 02:42:16;;;;;;;7.35;6.07;;;28.40;1.00;;;;;;5098243;28;20039;-45
2022/08/09 02:44:49;;;;;;;6.22;5.60;;;28.40;1.00;;;;;;5111746;28;20085;-45
2022/08/09 02:47:18;;;;;;;6.80;6.07;;;28.40;1.00;;;;;;5097785;28;20148;-45
2022/08/09 02:50:12;;;;;;;6.30;5.70;;;28.40;1.00;;;;;;5093189;28;20460;-45
2022/08/09 02:52:43;;;;;;;6.38;5.78;;;28.40;1.00;;;;;;5093496;28;20049;-46
2022/08/09 02:55:10;;;;;;;6.18;5.68;;;28.20;1.00;;;;;;5101181;28;20109;-47
2022/08/09 02:57:38;;;;;;;7.72;6.10;;;28.20;1.00;;;;;;5111964;28;20050;-48
2022/08/09 03:00:08;;;;;;;6.45;5.85;;;28.20;1.00;;;;;;5111312;28;20035;-46
2022/08/09 03:02:36;;;;;;;6.72;5.55;;;28.30;1.00;;;;;;5098038;28;20060;-47
2022/08/09 03:05:02;;;;;;;6.05;5.55;;;28.30;1.00;;;;;;5108984;28;20454;-44
2022/08/09 03:07:29;;;;;;;6.07;5.57;;;28.30;1.00;;;;;;5111090;28;20034;-46
2022/08/09 03:09:56;;;;;;;7.60;5.75;;;28.40;1.00;;;;;;5113772;28;20024;-45
2022/08/09 03:12:23;;;;;;;6.50;5.90;;;28.40;1.00;;;;;;5115174;28;20036;-45
2022/08/09 03:14:49;;;;;;;6.38;5.88;;;28.30;1.00;;;;;;5115292;28;20046;-45
2022/08/09 03:17:16;;;;;;;9.20;7.07;;;28.20;1.00;;;;;;5115979;28;20080;-45
2022/08/09 03:19:42;;;;;;;7.03;6.43;;;28.20;1.00;;;;;;5115226;28;20059;-45
2022/08/09 03:22:09;;;;;;;7.93;7.03;;;28.10;1.00;;;;;;5115706;28;20032;-46
2022/08/09 03:24:35;;;;;;;7.45;6.78;;;28.10;1.00;;;;;;5114824;28;20024;-45
2022/08/09 03:27:04;;;;;;;8.25;6.80;;;28.10;1.00;;;;;;5115986;28;20106;-48
2022/08/09 03:29:31;;;;;;;6.72;6.13;;;28.00;1.00;;;;;;5101700;28;20540;-46
2022/08/09 03:31:57;;;;;;;7.55;6.57;;;28.00;1.00;;;;;;5114251;28;20084;-52
2022/08/09 03:34:23;;;;;;;6.82;6.13;;;28.00;1.00;;;;;;5113929;28;20111;-52
2022/08/09 03:36:49;;;;;;;6.78;6.22;;;27.90;1.00;;;;;;5115919;28;20051;-51
2022/08/09 03:39:14;;;;;;;6.65;6.15;;;27.90;1.00;;;;;;5114874;28;20031;-52
2022/08/09 03:41:40;;;;;;;6.90;6.38;;;27.90;1.00;;;;;;5115530;28;20455;-51
2022/08/09 03:44:05;;;;;;;7.65;6.70;;;28.00;1.00;;;;;;5113684;28;20401;-48
2022/08/09 03:46:31;;;;;;;7.28;6.68;;;27.90;1.00;;;;;;5110771;28;20496;-47
2022/08/09 03:48:59;;;;;;;7.32;6.57;;;27.80;1.00;;;;;;5115385;28;20024;-47
2022/08/09 03:51:26;;;;;;;7.60;6.90;;;27.80;1.00;;;;;;5112931;28;20445;-49
2022/08/09 03:53:53;;;;;;;7.35;6.57;;;27.90;1.00;;;;;;5115282;28;20023;-47
2022/08/09 03:56:19;;;;;;;8.00;7.35;;;27.90;1.00;;;;;;5114643;28;20062;-50
2022/08/09 03:58:45;;;;;;;7.60;6.80;;;27.80;1.00;;;;;;5115358;28;20063;-47
2022/08/09 04:01:11;;;;;;;7.35;6.75;;;27.90;1.00;;;;;;5114499;28;20043;-49
2022/08/09 04:03:38;;;;;;;6.97;6.30;;;27.80;1.00;;;;;;5092613;28;20023;-50
2022/08/09 04:06:04;;;;;;;7.45;6.72;;;27.90;1.00;;;;;;5103020;28;20036;-47
2022/08/09 04:08:30;;;;;;;6.95;6.35;;;28.00;1.00;;;;;;5094869;28;20343;-46
2022/08/09 04:10:56;;;;;;;7.28;6.53;;;28.00;1.00;;;;;;5104159;28;20393;-45
2022/08/09 04:13:22;;;;;;;7.82;7.07;;;28.00;1.00;;;;;;5113640;28;20027;-45
2022/08/09 04:15:47;;;;;;;7.00;6.50;;;27.90;1.00;;;;;;5113842;28;20038;-47
2022/08/09 04:18:13;;;;;;;7.97;7.28;;;27.90;1.00;;;;;;5114651;28;20082;-46
2022/08/09 04:20:39;;;;;;;7.72;7.03;;;27.70;1.00;;;;;;5113898;28;20031;-47
2022/08/09 04:23:05;;;;;;;8.43;7.32;;;27.80;1.00;;;;;;5114519;28;20161;-49
2022/08/09 04:25:31;;;;;;;8.30;7.53;;;27.70;1.00;;;;;;5112646;28;20011;-49
2022/08/09 04:27:57;;;;;;;8.07;7.25;;;27.50;1.00;;;;;;5098762;28;20036;-48
2022/08/09 04:30:23;;;;;;;7.28;6.65;;;27.60;1.00;;;;;;5113345;28;20027;-48
2022/08/09 04:32:49;;;;;;;8.00;7.20;;;27.50;1.00;;;;;;5112803;28;20035;-45
2022/08/09 04:35:15;;;;;;;7.45;6.85;;;27.40;1.00;;;;;;5113446;28;20469;-46
2022/08/09 04:37:41;;;;;;;7.60;6.97;;;27.50;1.00;;;;;;5114432;28;20027;-47
2022/08/09 04:40:08;;;;;;;7.88;7.15;;;27.40;1.00;;;;;;5113447;28;20026;-45
2022/08/09 04:42:34;;;;;;;7.30;6.55;;;27.40;1.00;;;;;;5113986;28;20120;-45
2022/08/09 04:45:00;;;;;;;8.00;7.32;;;27.40;1.00;;;;;;5113532;28;20008;-45
2022/08/09 04:47:27;;;;;;;10.15;7.88;;;27.50;1.00;;;;;;5114335;28;20418;-46
2022/08/09 04:49:54;;;;;;;7.50;6.90;;;27.50;1.00;;;;;;5112931;28;20024;-47
2022/08/09 04:52:22;;;;;;;8.20;7.43;;;27.60;1.00;;;;;;5112817;28;20016;-45
2022/08/09 04:54:50;;;;;;;8.00;7.20;;;27.60;1.00;;;;;;5114039;28;20084;-45
2022/08/09 04:57:15;;;;;;;8.32;7.30;;;27.50;1.00;;;;;;5095647;28;20023;-45
2022/08/09 04:59:41;;;;;;;9.07;8.18;;;27.60;1.00;;;;;;5113038;28;20086;-45
2022/08/09 05:02:07;;;;;;;8.43;7.70;;;27.50;1.00;;;;;;5113052;28;20096;-44
2022/08/09 05:04:32;;;;;;;8.48;7.75;;;27.60;1.00;;;;;;5113796;28;20106;-46
2022/08/09 05:06:58;;;;;;;7.90;7.20;;;27.60;1.00;;;;;;5112743;28;20074;-45
2022/08/09 05:09:24;;;;;;;7.65;6.95;;;27.60;1.00;;;;;;5113800;28;20406;-45
2022/08/09 05:11:49;;;;;;;7.68;6.90;;;27.60;1.00;;;;;;5111898;28;20461;-45
2022/08/09 05:14:15;;;;;;;9.70;7.38;;;27.60;1.00;;;;;;5113531;28;20042;-45
2022/08/09 05:16:41;;;;;;;6.93;6.32;;;27.50;1.00;;;;;;5113087;28;20037;-49
2022/08/09 05:19:06;;;;;;;8.90;8.18;;;27.60;1.00;;;;;;5095602;28;20116;-45
2022/08/09 05:21:32;;;;;;;8.02;7.22;;;27.50;1.00;;;;;;5105301;28;20461;-45
2022/08/09 05:23:58;;;;;;;7.90;7.20;;;27.70;1.00;;;;;;5113442;28;20023;-45
2022/08/09 05:26:23;;;;;;;7.45;6.63;;;27.80;1.00;;;;;;5112581;28;20028;-45
2022/08/09 05:28:49;;;;;;;8.65;7.75;;;27.80;1.00;;;;;;5113592;28;20114;-47
2022/08/09 05:31:15;;;;;;;7.70;6.90;;;27.80;1.00;;;;;;5111182;28;20027;-46
2022/08/09 05:33:40;;;;;;;9.45;7.32;;;27.80;1.00;;;;;;5112968;28;20023;-45
2022/08/09 05:36:06;;;;;;;7.60;7.00;;;27.80;1.00;;;;;;5112418;28;20039;-46
2022/08/09 05:38:32;;;;;;;7.82;6.93;;;27.80;1.00;;;;;;5098771;28;20022;-44
2022/08/09 05:40:58;;;;;;;7.85;7.18;;;28.00;1.00;;;;;;5109124;28;20108;-45
2022/08/09 05:43:23;;;;;;;7.85;6.72;;;28.00;1.00;;;;;;5112764;27;20512;-47
2022/08/09 05:45:49;;;;;;;7.55;6.93;;;28.00;1.00;;;;;;5112065;28;20108;-51
2022/08/09 05:48:14;;;;;;;7.40;6.68;;;28.00;1.00;;;;;;5101068;28;20045;-48
2022/08/09 05:50:42;;;;;;;11.13;7.38;;;28.00;1.00;;;;;;5111876;28;20043;-48
2022/08/09 05:53:09;;;;;;;8.55;6.85;;;28.00;1.00;;;;;;5106966;28;20023;-48
2022/08/09 05:55:34;;;;;;;7.50;6.82;;;28.00;1.00;;;;;;5112120;28;20027;-46
2022/08/09 05:58:00;;;;;;;9.15;7.10;;;27.90;1.00;;;;;;5112345;28;20118;-45
2022/08/09 06:00:28;;;;;;;7.32;6.28;;;28.10;1.00;;;;;;5112196;28;20037;-47
2022/08/09 06:02:59;;;;;;;8.77;6.53;;;28.10;1.00;;;;;;5097898;28;20107;-48
2022/08/09 06:05:26;;;;;;;10.02;6.50;;;28.20;1.00;;;;;;5094339;28;20112;-49
2022/08/09 06:07:51;;;;;;;7.75;6.85;;;28.20;1.00;;;;;;5111824;28;20454;-49
2022/08/09 06:10:17;;;;;;;7.40;6.80;;;28.10;1.00;;;;;;5112575;28;20020;-46
2022/08/09 06:12:43;;;;;;;7.43;6.25;;;28.20;1.00;;;;;;5093604;28;20072;-48
2022/08/09 06:15:09;;;;;;;7.80;7.00;;;28.30;1.00;;;;;;5112457;28;20031;-46
2022/08/09 06:17:35;;;;;;;6.75;6.20;;;28.30;1.00;;;;;;5098148;28;20028;-48
2022/08/09 06:20:01;;;;;;;8.23;6.55;;;28.30;1.00;;;;;;5112800;28;20028;-48
2022/08/09 06:22:26;;;;;;;6.88;6.00;;;28.30;1.00;;;;;;5098059;28;20113;-46
2022/08/09 06:24:52;;;;;;;6.97;6.38;;;28.20;1.00;;;;;;5111283;28;20032;-46
2022/08/09 06:27:18;;;;;;;8.07;6.30;;;28.20;1.00;;;;;;5110617;28;20051;-47
2022/08/09 06:29:43;;;;;;;8.95;6.75;;;28.20;1.00;;;;;;5112141;28;20435;-49
2022/08/09 06:32:10;;;;;;;6.57;5.97;;;28.10;1.00;;;;;;5111323;28;20110;-47
2022/08/09 06:34:36;;;;;;;5.82;5.32;;;28.00;1.00;;;;;;5112098;28;20019;-46
2022/08/09 06:37:02;;;;;;;6.53;5.22;;;28.00;1.00;;;;;;5111576;28;20043;-48
2022/08/09 06:39:29;;;;;;;6.30;5.70;;;28.20;1.00;;;;;;5112364;28;20106;-45
2022/08/09 06:41:54;;;;;;;8.15;4.97;;;28.10;1.00;;;;;;5109018;28;20043;-47
2022/08/09 06:44:20;;;;;;;8.27;5.75;;;28.20;1.00;;;;;;5112142;28;20351;-45
2022/08/09 06:46:47;;;;;;;7.75;5.57;;;28.10;1.00;;;;;;5111070;28;20160;-45
2022/08/09 06:49:13;;;;;;;8.98;5.88;;;28.10;1.00;;;;;;5112070;28;20022;-45
2022/08/09 06:51:38;;;;;;;8.98;5.80;;;28.10;1.00;;;;;;5111068;28;20027;-45
2022/08/09 06:54:04;;;;;;;6.13;5.50;;;28.40;1.00;;;;;;5111948;28;20461;-47
2022/08/09 06:56:30;;;;;;;6.88;6.18;;;28.50;1.00;;;;;;5110376;28;20023;-46
2022/08/09 06:58:55;;;;;;;6.57;5.82;;;28.60;1.00;;;;;;5111942;28;20024;-45
2022/08/09 07:01:21;;;;;;;8.05;5.88;;;28.50;1.00;;;;;;5111259;28;20047;-49
2022/08/09 07:03:46;;;;;;;9.40;5.95;;;28.60;1.00;;;;;;5112079;28;20028;-47
2022/08/09 07:06:12;;;;;;;8.45;6.20;;;28.60;1.00;;;;;;5111056;28;20035;-50
2022/08/09 07:08:38;;;;;;;6.90;6.00;;;28.60;1.00;;;;;;5110451;28;20027;-47
2022/08/09 07:11:04;;;;;;;12.25;6.55;;;28.70;1.00;;;;;;5111739;28;20389;-45
2022/08/09 07:13:30;;;;;;;8.23;7.20;;;28.70;1.00;;;;;;5107871;28;20016;-46
2022/08/09 07:15:56;;;;;;;10.05;6.00;;;28.70;1.00;;;;;;5104844;28;20032;-46
2022/08/09 07:18:21;;;;;;;7.93;5.68;;;28.80;1.00;;;;;;5080157;28;20031;-46
2022/08/09 07:20:49;;;;;;;7.97;6.78;;;28.90;1.00;;;;;;5111839;28;20452;-45
2022/08/09 07:23:16;;;;;;;6.70;5.78;;;28.90;1.00;;;;;;5111131;28;20084;-45
2022/08/09 07:25:41;;;;;;;9.50;6.63;;;29.00;1.00;;;;;;5110731;28;20024;-47
2022/08/09 07:28:08;;;;;;;11.60;6.47;;;29.10;1.00;;;;;;5110586;28;20072;-45
2022/08/09 07:30:34;;;;;;;7.60;6.00;;;28.90;1.00;;;;;;5111595;28;20028;-45
2022/08/09 07:32:59;;;;;;;8.82;6.18;;;28.80;1.00;;;;;;5110711;28;20165;-45
2022/08/09 07:35:25;;;;;;;7.82;6.40;;;28.90;1.00;;;;;;5111454;28;20027;-44
2022/08/09 07:37:51;;;;;;;9.52;6.80;;;28.90;1.00;;;;;;5110664;28;20073;-44
2022/08/09 07:40:18;;;;;;;7.95;6.15;;;29.00;1.00;;;;;;5110228;28;20107;-46
2022/08/09 07:42:57;;;;;;;7.35;6.10;;;29.10;1.00;;;;;;5108059;28;20069;-45
2022/08/09 07:45:25;;;;;;;14.15;7.20;;;29.10;1.00;;;;;;5111404;28;20020;-46
2022/08/09 07:47:56;;;;;;;6.85;6.25;;;29.00;1.00;;;;;;5110612;28;20528;-47
2022/08/09 07:50:24;;;;;;;9.18;5.80;;;29.00;1.00;;;;;;5104525;28;20077;-45
2022/08/09 07:52:50;;;;;;;7.28;5.57;;;29.00;1.00;;;;;;5096605;28;20032;-47
2022/08/09 07:55:17;;;;;;;8.95;6.25;;;29.00;1.00;;;;;;5081709;28;20451;-49
2022/08/09 07:57:44;;;;;;;8.20;6.00;;;29.00;1.00;;;;;;5112707;28;20026;-47
2022/08/09 08:00:10;;;;;;;12.00;6.40;;;29.10;1.00;;;;;;5114574;28;20073;-46
2022/08/09 08:02:36;;;;;;;6.57;5.35;;;29.20;1.00;;;;;;5114936;28;20102;-47
2022/08/09 08:05:02;;;;;;;8.88;6.68;;;29.40;1.00;;;;;;5086630;28;20551;-45
2022/08/09 08:07:27;;;;;;;9.52;5.75;;;29.30;1.00;;;;;;5115229;28;20020;-46
2022/08/09 08:09:54;;;;;;;7.47;6.53;;;29.30;1.00;;;;;;5114139;28;20035;-44
2022/08/09 08:12:20;;;;;;;6.97;5.88;;;29.30;1.00;;;;;;5114827;28;20019;-47
2022/08/09 08:14:45;;;;;;;7.43;6.35;;;29.10;1.00;;;;;;5113237;28;20031;-48
2022/08/09 08:17:11;;;;;;;9.07;6.30;;;29.10;1.00;;;;;;5096428;28;20016;-46
2022/08/09 08:19:37;;;;;;;8.38;5.63;;;29.20;1.00;;;;;;5113817;28;20035;-46
2022/08/09 08:22:05;;;;;;;5.63;5.22;;;29.20;1.00;;;;;;5113243;28;20540;-46
2022/08/09 08:24:31;;;;;;;6.55;5.80;;;29.10;1.00;;;;;;5090028;28;20027;-45
2022/08/09 08:26:57;;;;;;;6.80;6.18;;;29.20;1.00;;;;;;5114532;28;20381;-45
2022/08/09 08:29:24;;;;;;;6.90;5.55;;;29.50;1.00;;;;;;5113891;28;20039;-45
2022/08/09 08:31:50;;;;;;;11.68;6.00;;;29.70;1.00;;;;;;5114422;28;20022;-45
2022/08/09 08:34:16;;;;;;;6.20;5.43;;;29.70;1.00;;;;;;5104098;28;20475;-45
2022/08/09 08:36:41;;;;;;;6.03;5.38;;;29.60;1.00;;;;;;5108757;28;20035;-45
2022/08/09 08:39:07;;;;;;;7.32;4.97;;;29.70;1.00;;;;;;5113781;28;20030;-45
2022/08/09 08:41:33;;;;;;;7.78;5.22;;;29.90;1.00;;;;;;5114500;28;20114;-46
2022/08/09 08:43:58;;;;;;;6.20;4.88;;;30.10;1.00;;;;;;5113072;28;20119;-45
2022/08/09 08:46:32;;;;;;;5.30;4.80;;;30.10;1.00;;;;;;5114409;28;20124;-45
2022/08/09 08:48:59;;;;;;;6.22;5.00;;;30.00;1.00;;;;;;5113339;28;20099;-46
2022/08/09 08:51:24;;;;;;;7.45;5.15;;;30.00;1.00;;;;;;5113747;28;20051;-45
2022/08/09 08:53:51;;;;;;;6.55;4.65;;;30.00;1.00;;;;;;5113276;28;21339;-45
2022/08/09 08:56:21;;;;;;;5.32;4.45;;;30.00;1.00;;;;;;5114124;28;20031;-45
2022/08/09 08:58:47;;;;;;;5.95;4.75;;;30.20;1.00;;;;;;5113274;28;20022;-45
2022/08/09 09:01:15;;;;;;;6.72;5.03;;;30.10;1.00;;;;;;5089584;28;20523;-46
2022/08/09 09:03:42;;;;;;;6.65;4.65;;;30.10;1.00;;;;;;5112856;28;20099;-44
2022/08/09 09:06:11;;;;;;;6.68;4.63;;;30.00;1.00;;;;;;5113137;28;20222;-45
2022/08/09 09:08:39;;;;;;;5.90;4.60;;;30.00;1.00;;;;;;5112817;28;20028;-45
2022/08/09 09:11:06;;;;;;;5.20;4.60;;;30.10;1.00;;;;;;5095298;28;20160;-45
2022/08/09 09:13:39;;;;;;;4.55;4.03;;;30.10;1.00;;;;;;5111820;28;20032;-45
2022/08/09 09:16:06;;;;;;;6.35;4.97;;;30.10;1.00;;;;;;5113348;28;20024;-46
2022/08/09 09:18:32;;;;;;;6.22;4.72;;;30.20;1.00;;;;;;5094176;28;20077;-45
2022/08/09 09:20:58;;;;;;;5.80;4.93;;;30.20;1.00;;;;;;5112630;28;20031;-46
2022/08/09 09:23:43;;;;;;;7.78;4.57;;;30.30;1.00;;;;;;5112798;28;20412;-45
2022/08/09 09:26:10;;;;;;;5.60;5.10;;;30.30;1.00;;;;;;5113438;28;20503;-47
2022/08/09 09:28:36;;;;;;;6.85;5.10;;;30.40;1.00;;;;;;5112353;28;20024;-46
2022/08/09 09:31:04;;;;;;;5.40;4.53;;;30.40;1.00;;;;;;5113438;28;20015;-46
2022/08/09 09:33:39;;;;;;;7.45;4.88;;;30.30;1.00;;;;;;5112382;28;20015;-46
2022/08/09 09:36:08;;;;;;;5.00;4.53;;;30.40;1.00;;;;;;5113342;28;20050;-46
2022/08/09 09:38:47;;;;;;;4.90;4.53;;;30.40;1.00;;;;;;5112385;28;20023;-46
2022/08/09 09:41:27;;;;;;;5.70;5.30;;;30.40;1.00;;;;;;5113152;28;20031;-46
2022/08/09 09:43:58;;;;;;;5.15;4.65;;;30.20;1.00;;;;;;5112142;28;20044;-45
2022/08/09 09:46:29;;;;;;;7.07;4.53;;;30.30;1.00;;;;;;5113071;28;20031;-46
2022/08/09 09:48:57;;;;;;;6.72;4.68;;;30.30;1.00;;;;;;5111597;28;20035;-47
2022/08/09 09:51:23;;;;;;;6.72;5.30;;;30.30;1.00;;;;;;5113072;28;20024;-46
2022/08/09 09:54:07;;;;;;;8.32;5.50;;;30.30;1.00;;;;;;5093382;28;20168;-45
2022/08/09 09:56:36;;;;;;;6.43;4.93;;;30.40;1.00;;;;;;5112987;28;20024;-46
2022/08/09 09:59:02;;;;;;;9.13;5.65;;;30.40;1.00;;;;;;5111961;28;20015;-46
2022/08/09 10:01:28;;;;;;;5.85;5.25;;;30.50;1.00;;;;;;5112765;28;20047;-45
2022/08/09 10:03:55;;;;;;;6.15;5.32;;;30.50;1.00;;;;;;5112128;28;20024;-45
2022/08/09 10:06:20;;;;;;;7.00;5.00;;;30.50;1.00;;;;;;5111282;28;20106;-46
2022/08/09 10:08:47;;;;;;;5.68;4.95;;;30.60;1.00;;;;;;5110031;28;20433;-51
2022/08/09 10:11:20;;;;;;;7.10;5.10;;;30.70;1.00;;;;;;5112496;28;20053;-52
2022/08/09 10:13:47;;;;;;;5.33;4.90;;;30.70;1.00;;;;;;5111749;28;20020;-52
2022/08/09 10:16:14;;;;;;;5.30;4.85;;;30.60;1.00;;;;;;5112379;28;20023;-48
2022/08/09 10:18:50;;;;;;;5.00;4.63;;;30.60;1.00;;;;;;5109650;28;20494;-49
2022/08/09 10:21:16;;;;;;;7.07;5.30;;;30.70;1.00;;;;;;5112510;28;20134;-48
2022/08/09 10:23:42;;;;;;;5.97;5.38;;;30.90;1.00;;;;;;5111700;28;20358;-46
2022/08/09 10:26:08;;;;;;;7.30;5.47;;;30.80;1.00;;;;;;5112434;28;20024;-48
2022/08/09 10:28:35;;;;;;;9.57;6.32;;;30.70;1.00;;;;;;5111675;28;20016;-46
2022/08/09 10:31:01;;;;;;;6.40;5.32;;;30.70;1.00;;;;;;5110967;28;20068;-48
2022/08/09 10:33:27;;;;;;;7.45;4.78;;;30.90;1.00;;;;;;5112434;28;20019;-47
2022/08/09 10:35:53;;;;;;;5.65;5.13;;;30.90;1.00;;;;;;5098249;28;20051;-47
2022/08/09 10:38:19;;;;;;;6.82;5.78;;;31.00;1.00;;;;;;5107363;28;20100;-47
2022/08/09 10:40:45;;;;;;;6.82;5.32;;;31.00;1.00;;;;;;5109030;28;20107;-45
2022/08/09 10:43:11;;;;;;;5.70;5.00;;;31.10;1.00;;;;;;5078422;28;20100;-46
2022/08/09 10:45:41;;;;;;;6.20;5.55;;;31.10;1.00;;;;;;5110605;28;20039;-46
2022/08/09 10:48:18;;;;;;;5.90;5.40;;;31.20;1.00;;;;;;5112218;28;20389;-47
2022/08/09 10:53:52;;;;;;;6.50;5.57;;;31.30;1.00;;;;;;5112104;28;20057;-46
2022/08/09 10:56:24;;;;;;;6.00;5.40;;;31.30;1.00;;;;;;5104319;28;20086;-45
2022/08/09 10:58:51;;;;;;;7.55;5.03;;;31.30;1.00;;;;;;5111133;28;20055;-46
2022/08/09 11:01:32;;;;;;;6.25;5.65;;;31.40;1.00;;;;;;5112027;28;20114;-45
2022/08/09 11:04:22;;;;;;;5.85;5.32;;;31.40;1.00;;;;;;5111019;28;20024;-47
2022/08/09 11:07:09;;;;;;;5.53;5.07;;;31.50;1.00;;;;;;5111941;28;20046;-46
2022/08/09 11:09:37;;;;;;;7.30;6.38;;;31.70;1.00;;;;;;5110937;28;20051;-46
2022/08/09 11:12:12;;;;;;;6.78;5.60;;;31.70;1.00;;;;;;5106683;28;20032;-46
2022/08/09 11:14:43;;;;;;;6.40;5.38;;;31.50;1.00;;;;;;5111239;28;20059;-47
2022/08/09 11:17:15;;;;;;;5.90;5.40;;;31.80;1.00;;;;;;5111784;28;20373;-46
2022/08/09 11:19:58;;;;;;;6.30;5.70;;;31.90;1.00;;;;;;5104382;28;20055;-46
2022/08/09 11:22:39;;;;;;;6.95;6.05;;;31.90;1.00;;;;;;5108461;28;20481;-46
2022/08/09 11:25:14;;;;;;;6.82;5.63;;;31.80;1.00;;;;;;5092157;28;20046;-44
2022/08/09 11:27:42;;;;;;;5.97;5.45;;;32.10;1.00;;;;;;5111581;28;20012;-46
2022/08/09 11:30:32;;;;;;;8.07;5.70;;;32.20;1.00;;;;;;5111077;28;20036;-45
2022/08/09 11:33:04;;;;;;;6.72;6.13;;;32.20;1.00;;;;;;5102615;28;20163;-45
2022/08/09 11:35:42;;;;;;;8.23;6.47;;;32.30;1.00;;;;;;5115061;28;20041;-44
2022/08/09 11:38:23;;;;;;;6.82;6.13;;;32.40;1.00;;;;;;5101807;28;20023;-44
2022/08/09 11:40:50;;;;;;;6.75;6.05;;;32.50;1.00;;;;;;5114463;28;20465;-47
2022/08/09 11:43:26;;;;;;;5.47;5.07;;;32.70;1.00;;;;;;5114680;28;20036;-47
2022/08/09 11:45:58;;;;;;;7.60;5.65;;;32.90;1.00;;;;;;5115067;28;20118;-46
2022/08/09 11:48:29;;;;;;;6.65;6.00;;;33.00;1.00;;;;;;5115401;28;20030;-46
2022/08/09 11:50:58;;;;;;;7.07;5.72;;;33.00;1.00;;;;;;5114390;28;20031;-45
2022/08/09 11:53:24;;;;;;;6.75;5.57;;;33.40;1.00;;;;;;5115294;28;20028;-46
2022/08/09 11:55:55;;;;;;;6.43;5.45;;;33.40;1.00;;;;;;5114393;28;20019;-44
2022/08/09 11:58:22;;;;;;;6.35;5.75;;;34.30;1.00;;;;;;5115135;28;20028;-45
2022/08/09 12:00:49;;;;;;;6.90;6.10;;;34.70;1.00;;;;;;5114062;28;20354;-45
2022/08/09 12:03:16;;;;;;;8.95;6.07;;;36.10;1.00;;;;;;5114981;28;20035;-47
2022/08/09 12:05:42;;;;;;;7.43;6.65;;;37.60;1.00;;;;;;5114309;28;20111;-45
2022/08/09 12:08:09;;;;;;;6.70;6.10;;;39.60;1.00;;;;;;5114971;28;20055;-45
2022/08/09 12:10:41;;;;;;;8.60;6.28;;;40.10;1.00;;;;;;5114645;28;20031;-45
2022/08/09 12:13:07;;;;;;;7.25;6.43;;;40.20;1.00;;;;;;5113649;28;20091;-45
2022/08/09 12:15:33;;;;;;;7.78;6.88;;;39.40;1.00;;;;;;5113596;28;20019;-45
2022/08/09 12:17:59;;;;;;;9.43;6.68;;;39.10;1.00;;;;;;5114170;28;20047;-45
2022/08/09 12:20:26;;;;;;;7.55;6.85;;;40.40;1.00;;;;;;5113869;28;20165;-50
2022/08/09 12:22:58;;;;;;;9.30;7.03;;;42.10;1.00;;;;;;5113620;28;20040;-52
2022/08/09 12:25:25;;;;;;;6.97;6.38;;;44.50;1.00;;;;;;5114668;28;20380;-45
2022/08/09 12:28:12;;;;;;;9.13;7.57;;;45.80;1.00;;;;;;5112885;28;20030;-45
2022/08/09 12:30:38;;;;;;;9.05;8.35;;;43.90;1.00;;;;;;5113795;28;20392;-47
2022/08/09 12:33:03;;;;;;;8.02;7.53;;;45.00;1.00;;;;;;5096231;28;20077;-48
2022/08/09 12:35:29;;;;;;;8.63;7.88;;;46.90;1.00;;;;;;5114770;28;20062;-46
2022/08/09 12:37:55;;;;;;;8.77;8.05;;;46.80;1.00;;;;;;5083367;28;20080;-47
2022/08/09 12:40:26;;;;;;;9.88;7.80;;;45.80;1.00;;;;;;5104002;28;20465;-46
2022/08/09 12:42:53;;;;;;;8.68;8.05;;;44.40;1.00;;;;;;5113019;28;20423;-52
2022/08/09 12:45:19;;;;;;;9.27;8.45;;;44.50;1.00;;;;;;5114178;28;20473;-45
2022/08/09 12:47:46;;;;;;;8.90;8.05;;;41.60;1.00;;;;;;5113553;28;20358;-46
2022/08/09 12:50:18;;;;;;;9.20;8.40;;;41.60;1.00;;;;;;5114246;28;20028;-46
2022/08/09 12:52:46;;;;;;;8.60;7.88;;;42.80;1.00;;;;;;5113363;28;20354;-46
2022/08/09 12:55:26;;;;;;;9.57;8.52;;;42.30;1.00;;;;;;5114085;28;20020;-46
2022/08/09 12:57:52;;;;;;;9.70;8.85;;;42.30;1.00;;;;;;5113630;28;20104;-49
2022/08/09 13:00:20;;;;;;;9.35;8.73;;;42.30;1.00;;;;;;5114264;28;20039;-52
2022/08/09 13:02:57;;;;;;;9.40;8.60;;;41.30;1.00;;;;;;5113292;28;20035;-50
2022/08/09 13:05:27;;;;;;;9.38;8.77;;;42.30;1.00;;;;;;5114049;28;20019;-46
2022/08/09 13:08:20;;;;;;;9.43;8.63;;;42.90;1.00;;;;;;5112953;28;20134;-46